Time;durP1;ratioP1;P1;durP2;ratioP2;P2;SDS_P1;SDS_P2;PMS_P1;PMS_P2;Temp;Humidity;BMP_temperature;BMP_pressure;BME280_temperature;BME280_humidity;BME280_pressure;Samples;Min_cycle;Max_cycle;Signal;HPM_P1;HPM_P2
2022/12/15 00:39:41;;;;;;;;;;;4.10;90.00;;;;;;5070513;28;19962;-88
2022/12/15 00:42:08;;;;;;;;;;;4.10;89.40;;;;;;5072388;28;19939;-87
2022/12/15 00:44:34;;;;;;;;;;;4.10;89.20;;;;;;5072448;28;19941;-87
2022/12/15 00:46:59;;;;;;;;;;;3.90;88.80;;;;;;5072113;28;19950;-87
2022/12/15 01:22:31;;;;;;;;;;;3.50;88.90;;;;;;5095522;28;20345;-87
2022/12/15 01:24:57;;;;;;;;;;;3.70;88.90;;;;;;5092757;28;20401;-87
2022/12/15 01:27:22;;;;;;;;;;;3.70;88.80;;;;;;5082635;28;20336;-87
2022/12/15 01:29:48;;;;;;;;;;;3.70;87.90;;;;;;5088750;28;20394;-87
2022/12/15 01:32:13;;;;;;;;;;;3.50;87.70;;;;;;5095478;28;20000;-86
2022/12/15 01:34:39;;;;;;;;;;;3.40;88.40;;;;;;5095688;28;20420;-86
2022/12/15 01:37:04;;;;;;;;;;;3.30;88.30;;;;;;5085419;28;20439;-87
2022/12/15 01:40:43;;;;;;;;;;;3.10;88.60;;;;;;5074051;28;19942;-87
2022/12/15 01:42:15;;;;;;;;;;;2.70;89.80;;;;;;5074882;28;19943;-87
2022/12/15 01:44:42;;;;;;;;;;;2.70;89.80;;;;;;5074979;28;20353;-87
2022/12/15 01:47:11;;;;;;;;;;;2.50;89.70;;;;;;5074698;28;19989;-87
2022/12/15 01:49:37;;;;;;;;;;;2.50;89.90;;;;;;5086330;28;19953;-87
2022/12/15 01:52:04;;;;;;;;;;;2.50;90.20;;;;;;5094994;28;20404;-87
2022/12/15 01:54:30;;;;;;;;;;;2.60;90.10;;;;;;5092824;28;20001;-87
2022/12/15 01:56:58;;;;;;;;;;;2.50;89.90;;;;;;5086452;28;20320;-87
2022/12/15 01:59:29;;;;;;;;;;;2.50;90.20;;;;;;5073910;28;20430;-87
2022/12/15 02:01:55;;;;;;;;;;;2.50;90.30;;;;;;5074604;28;20029;-87
2022/12/15 02:04:21;;;;;;;;;;;2.50;90.30;;;;;;5074392;28;19972;-87
2022/12/15 02:06:47;;;;;;;;;;;2.50;90.20;;;;;;5073981;28;19997;-87
2022/12/15 02:09:13;;;;;;;;;;;2.40;90.30;;;;;;5091969;28;19979;-87
2022/12/15 02:11:57;;;;;;;;;;;2.30;90.60;;;;;;5092490;28;19994;-87
2022/12/15 02:14:41;;;;;;;;;;;2.30;90.80;;;;;;5094623;28;19934;-87
2022/12/15 02:17:09;;;;;;;;;;;2.40;91.30;;;;;;5090413;28;19948;-87
2022/12/15 02:19:50;;;;;;;;;;;2.40;90.80;;;;;;5094438;28;19969;-87
2022/12/15 02:22:54;;;;;;;;;;;2.20;91.10;;;;;;5087569;22;19993;-87
2022/12/15 02:25:37;;;;;;;;;;;2.30;91.30;;;;;;5011120;28;20217;-87
2022/12/15 02:28:12;;;;;;;;;;;2.20;90.80;;;;;;5030655;28;19947;-87
2022/12/15 02:30:43;;;;;;;;;;;2.10;90.30;;;;;;5072218;28;19937;-87
2022/12/15 02:33:25;;;;;;;;;;;2.00;90.40;;;;;;5094263;28;19938;-87
2022/12/15 02:35:54;;;;;;;;;;;2.00;90.50;;;;;;5070012;28;19943;-87
2022/12/15 02:38:27;;;;;;;;;;;2.00;91.00;;;;;;5094042;28;19957;-87
2022/12/15 02:40:59;;;;;;;;;;;2.00;90.70;;;;;;5087704;28;19954;-87
2022/12/15 02:43:25;;;;;;;;;;;2.10;90.30;;;;;;5092941;28;19990;-87
2022/12/15 02:46:00;;;;;;;;;;;2.30;90.40;;;;;;5090007;28;19981;-87
2022/12/15 02:48:25;;;;;;;;;;;2.50;90.30;;;;;;5093926;28;19939;-87
2022/12/15 02:51:12;;;;;;;;;;;2.50;90.50;;;;;;5093994;28;19937;-87
2022/12/15 02:53:38;;;;;;;;;;;2.50;90.50;;;;;;5091203;28;19959;-87
2022/12/15 02:56:03;;;;;;;;;;;2.40;90.20;;;;;;5090633;28;19951;-87
2022/12/15 02:58:35;;;;;;;;;;;2.30;89.80;;;;;;5093693;28;20034;-87
2022/12/15 03:01:21;;;;;;;;;;;2.20;89.90;;;;;;5093851;28;19938;-87
2022/12/15 03:03:47;;;;;;;;;;;2.10;89.10;;;;;;5071196;28;20332;-87
2022/12/15 03:06:13;;;;;;;;;;;1.90;89.50;;;;;;5085817;28;19937;-87
2022/12/15 03:08:39;;;;;;;;;;;1.90;89.80;;;;;;5073416;28;19942;-87
2022/12/15 03:11:04;;;;;;;;;;;1.90;89.80;;;;;;5086356;28;20286;-88
2022/12/15 03:13:30;;;;;;;;;;;1.90;90.10;;;;;;5084296;28;20316;-88
2022/12/15 03:15:57;;;;;;;;;;;1.70;90.20;;;;;;5089299;28;19983;-88
2022/12/15 03:18:22;;;;;;;;;;;1.80;90.50;;;;;;5093017;28;19961;-88
2022/12/15 03:20:48;;;;;;;;;;;1.80;90.50;;;;;;5093335;28;19944;-87
2022/12/15 03:23:14;;;;;;;;;;;1.80;90.70;;;;;;5086826;28;19967;-87
2022/12/15 03:25:39;;;;;;;;;;;1.90;90.80;;;;;;5085814;28;19949;-87
2022/12/15 03:28:05;;;;;;;;;;;1.90;90.70;;;;;;5093428;28;20031;-87
2022/12/15 03:30:30;;;;;;;;;;;1.70;90.50;;;;;;5093365;28;19978;-88
2022/12/15 03:32:56;;;;;;;;;;;1.80;90.80;;;;;;5089497;28;19940;-87
2022/12/15 03:35:21;;;;;;;;;;;2.00;91.00;;;;;;5084084;28;19946;-87
2022/12/15 03:37:47;;;;;;;;;;;2.00;90.90;;;;;;5093176;28;19935;-87
2022/12/15 03:40:12;;;;;;;;;;;2.10;91.00;;;;;;5083678;28;19947;-87
2022/12/15 03:42:47;;;;;;;;;;;2.10;91.30;;;;;;5072795;28;19959;-87
2022/12/15 03:45:17;;;;;;;;;;;2.40;91.00;;;;;;5072207;28;19987;-87
2022/12/15 03:47:43;;;;;;;;;;;2.20;90.00;;;;;;5073029;28;20382;-87
2022/12/15 03:50:09;;;;;;;;;;;2.10;90.10;;;;;;5072993;28;19942;-87
2022/12/15 03:52:35;;;;;;;;;;;2.10;90.20;;;;;;5072634;28;19958;-87
2022/12/15 03:55:01;;;;;;;;;;;2.00;90.20;;;;;;5079734;28;19966;-87
2022/12/15 03:57:27;;;;;;;;;;;1.90;90.40;;;;;;5093092;28;19964;-87
2022/12/15 03:59:52;;;;;;;;;;;1.80;90.70;;;;;;5090841;28;19963;-88
2022/12/15 04:02:18;;;;;;;;;;;1.80;90.90;;;;;;5072822;28;19940;-88
2022/12/15 04:04:43;;;;;;;;;;;1.90;91.50;;;;;;5077701;28;19995;-88
2022/12/15 04:07:09;;;;;;;;;;;2.20;91.40;;;;;;5093021;28;19941;-88
2022/12/15 04:09:35;;;;;;;;;;;2.50;90.90;;;;;;5090192;28;19994;-88
2022/12/15 04:12:02;;;;;;;;;;;2.40;90.30;;;;;;5087956;28;20359;-87
2022/12/15 04:14:28;;;;;;;;;;;2.30;90.60;;;;;;5093159;28;20023;-87
2022/12/15 04:16:54;;;;;;;;;;;2.20;90.90;;;;;;5092926;28;19938;-88
2022/12/15 04:22:03;;;;;;;;;;;2.30;90.70;;;;;;5078434;28;20048;-87
2022/12/15 05:32:54;;;;;;;;;;;2.70;90.30;;;;;;5076257;28;19952;-87
2022/12/15 05:35:19;;;;;;;;;;;2.80;90.30;;;;;;5075175;28;19935;-87
2022/12/15 05:37:45;;;;;;;;;;;2.80;90.00;;;;;;5087179;28;19955;-87
2022/12/15 05:40:10;;;;;;;;;;;2.80;89.80;;;;;;5092043;28;19958;-87
2022/12/15 05:42:36;;;;;;;;;;;2.80;89.60;;;;;;5083399;28;19945;-87
2022/12/15 05:45:04;;;;;;;;;;;2.80;89.40;;;;;;5074992;28;19942;-87
2022/12/15 05:47:29;;;;;;;;;;;2.80;89.30;;;;;;5068708;28;20418;-87
2022/12/15 05:49:55;;;;;;;;;;;2.80;89.20;;;;;;5095137;28;19980;-87
2022/12/15 05:52:20;;;;;;;;;;;2.80;89.00;;;;;;5074583;28;19962;-87
2022/12/15 05:54:46;;;;;;;;;;;2.70;89.10;;;;;;5074712;28;19939;-87
2022/12/15 05:57:11;;;;;;;;;;;2.70;89.40;;;;;;5073974;28;19969;-88
2022/12/15 05:59:37;;;;;;;;;;;2.80;89.70;;;;;;5074621;28;19941;-87
2022/12/15 06:02:02;;;;;;;;;;;2.70;89.90;;;;;;5073151;28;19986;-88
2022/12/15 06:04:28;;;;;;;;;;;2.70;90.30;;;;;;5074638;28;20313;-88
2022/12/15 06:06:53;;;;;;;;;;;2.80;90.40;;;;;;5083164;28;20326;-88
2022/12/15 06:09:19;;;;;;;;;;;3.00;90.30;;;;;;5091043;28;20306;-88
2022/12/15 06:11:45;;;;;;;;;;;3.00;89.80;;;;;;5073934;28;20578;-87
2022/12/15 06:14:10;;;;;;;;;;;3.00;89.50;;;;;;5087777;28;20296;-87
2022/12/15 06:16:36;;;;;;;;;;;2.90;88.80;;;;;;5094609;28;19949;-87
2022/12/15 06:19:02;;;;;;;;;;;3.00;89.10;;;;;;5075498;28;19957;-87
2022/12/15 06:21:36;;;;;;;;;;;3.00;88.80;;;;;;5074196;28;20015;-88
2022/12/15 06:24:03;;;;;;;;;;;3.10;88.80;;;;;;5075859;28;19943;-87
2022/12/15 06:26:32;;;;;;;;;;;3.20;88.80;;;;;;5076676;28;19983;-87
2022/12/15 06:29:01;;;;;;;;;;;3.20;88.70;;;;;;5071056;28;19941;-88
2022/12/15 06:31:27;;;;;;;;;;;3.20;88.20;;;;;;5067468;28;19940;-88
2022/12/15 06:33:54;;;;;;;;;;;3.20;88.40;;;;;;5077162;28;19939;-88
2022/12/15 06:36:19;;;;;;;;;;;3.40;88.40;;;;;;5064996;28;19952;-88
2022/12/15 06:38:45;;;;;;;;;;;3.50;87.90;;;;;;5060537;28;19967;-88
2022/12/15 06:41:12;;;;;;;;;;;3.50;87.80;;;;;;5069514;28;19949;-88
2022/12/15 06:43:38;;;;;;;;;;;3.50;87.80;;;;;;5080664;28;19940;-88
2022/12/15 06:46:03;;;;;;;;;;;3.50;87.20;;;;;;5073204;28;20004;-88
2022/12/15 06:48:29;;;;;;;;;;;3.40;87.00;;;;;;5079842;28;20043;-87
2022/12/15 06:50:55;;;;;;;;;;;3.40;87.40;;;;;;5074615;28;20069;-87
2022/12/15 06:53:21;;;;;;;;;;;3.20;87.60;;;;;;5083802;28;19962;-88
2022/12/15 06:55:47;;;;;;;;;;;3.30;87.70;;;;;;5077367;28;20031;-88
2022/12/15 06:58:13;;;;;;;;;;;3.30;87.10;;;;;;5076500;28;20046;-87
2022/12/15 07:00:39;;;;;;;;;;;3.30;87.00;;;;;;5066695;28;20038;-87
2022/12/15 07:03:06;;;;;;;;;;;3.30;87.20;;;;;;5068452;28;20016;-87
2022/12/15 07:05:31;;;;;;;;;;;3.20;87.40;;;;;;5067582;28;19945;-88
2022/12/15 07:07:57;;;;;;;;;;;3.40;87.80;;;;;;5065477;28;20298;-88
2022/12/15 07:10:23;;;;;;;;;;;3.60;87.80;;;;;;5067535;28;20289;-88
2022/12/15 07:12:48;;;;;;;;;;;3.80;87.60;;;;;;5056960;28;20290;-88
2022/12/15 07:15:14;;;;;;;;;;;3.90;87.20;;;;;;5070461;28;20433;-87
2022/12/15 07:17:39;;;;;;;;;;;3.60;87.40;;;;;;5067082;28;20399;-87
2022/12/15 07:20:05;;;;;;;;;;;3.50;87.30;;;;;;5067232;28;20360;-87
2022/12/15 07:22:31;;;;;;;;;;;3.40;88.10;;;;;;5072799;28;19979;-87
2022/12/15 07:24:57;;;;;;;;;;;3.40;88.30;;;;;;5069412;28;19945;-87
2022/12/15 07:27:22;;;;;;;;;;;3.30;88.00;;;;;;5069156;28;20039;-87
2022/12/15 07:29:48;;;;;;;;;;;3.30;87.30;;;;;;5069504;28;19990;-88
2022/12/15 07:32:14;;;;;;;;;;;3.30;86.40;;;;;;5069848;28;19972;-87
2022/12/15 07:34:40;;;;;;;;;;;3.30;85.30;;;;;;5064847;28;20404;-87
2022/12/15 07:37:06;;;;;;;;;;;3.30;85.10;;;;;;5049728;28;19998;-88
2022/12/15 07:39:31;;;;;;;;;;;3.40;85.40;;;;;;5070208;28;20352;-87
2022/12/15 07:41:57;;;;;;;;;;;3.50;85.00;;;;;;5070709;28;19952;-88
2022/12/15 07:44:22;;;;;;;;;;;3.60;84.20;;;;;;5050302;28;19942;-88
2022/12/15 07:46:48;;;;;;;;;;;3.60;84.20;;;;;;5066396;28;19954;-88
2022/12/15 07:49:15;;;;;;;;;;;3.60;84.50;;;;;;5065752;28;19946;-88
2022/12/15 07:51:41;;;;;;;;;;;3.80;83.60;;;;;;5048716;28;19958;-87
2022/12/15 07:54:08;;;;;;;;;;;3.70;83.10;;;;;;5068957;28;19937;-87
2022/12/15 07:56:33;;;;;;;;;;;3.70;83.50;;;;;;5064873;28;19952;-88
2022/12/15 07:58:59;;;;;;;;;;;3.70;83.60;;;;;;5068575;28;19957;-87
2022/12/15 08:01:25;;;;;;;;;;;3.80;83.30;;;;;;5067732;28;19947;-87
2022/12/15 08:03:51;;;;;;;;;;;3.80;83.50;;;;;;5073148;28;19946;-88
2022/12/15 08:06:16;;;;;;;;;;;3.80;83.50;;;;;;5076988;28;19951;-88
2022/12/15 08:08:43;;;;;;;;;;;3.90;83.80;;;;;;5070893;28;21647;-88
2022/12/15 08:11:09;;;;;;;;;;;4.20;83.30;;;;;;5071597;28;19972;-87
2022/12/15 08:13:35;;;;;;;;;;;4.40;82.00;;;;;;5081969;28;19941;-88
2022/12/15 08:16:01;;;;;;;;;;;4.40;81.50;;;;;;5075985;28;19940;-88
2022/12/15 08:18:26;;;;;;;;;;;4.30;82.40;;;;;;5075578;28;19977;-88
2022/12/15 08:20:52;;;;;;;;;;;4.30;82.30;;;;;;5074759;28;20390;-88
2022/12/15 08:23:18;;;;;;;;;;;4.40;82.30;;;;;;5077528;28;20289;-87
2022/12/15 08:25:43;;;;;;;;;;;4.40;81.50;;;;;;5072751;28;20381;-87
2022/12/15 08:28:09;;;;;;;;;;;4.40;81.40;;;;;;5074973;28;20422;-88
2022/12/15 08:30:35;;;;;;;;;;;4.40;81.20;;;;;;5067938;28;19983;-88
2022/12/15 08:33:01;;;;;;;;;;;4.50;80.60;;;;;;5067793;28;19948;-88
2022/12/15 08:35:27;;;;;;;;;;;4.60;79.40;;;;;;5071913;28;19941;-87
2022/12/15 08:37:52;;;;;;;;;;;4.60;79.50;;;;;;5071513;28;19963;-87
2022/12/15 08:40:18;;;;;;;;;;;4.70;79.20;;;;;;5071230;28;19977;-87
2022/12/15 08:42:43;;;;;;;;;;;4.70;79.60;;;;;;5079645;28;20313;-87
2022/12/15 08:45:11;;;;;;;;;;;4.70;79.50;;;;;;5075148;28;20309;-88
2022/12/15 08:47:37;;;;;;;;;;;4.70;79.30;;;;;;5076641;28;19941;-88
2022/12/15 08:50:02;;;;;;;;;;;4.80;79.30;;;;;;5068027;28;20367;-88
2022/12/15 08:52:28;;;;;;;;;;;4.80;79.10;;;;;;5073264;28;20340;-88
2022/12/15 08:54:54;;;;;;;;;;;4.70;78.00;;;;;;5070357;28;19997;-88
2022/12/15 08:57:19;;;;;;;;;;;5.00;77.30;;;;;;5069347;28;19955;-88
2022/12/15 08:59:45;;;;;;;;;;;5.10;77.00;;;;;;5069478;28;20091;-88
2022/12/15 09:02:11;;;;;;;;;;;5.00;77.30;;;;;;5053221;28;19951;-88
2022/12/15 09:04:37;;;;;;;;;;;5.20;77.00;;;;;;5070764;28;20002;-87
2022/12/15 09:07:02;;;;;;;;;;;5.20;75.70;;;;;;5069401;28;20365;-87
2022/12/15 09:09:28;;;;;;;;;;;5.00;76.20;;;;;;5070480;28;20304;-88
2022/12/15 09:11:54;;;;;;;;;;;4.90;77.20;;;;;;5068579;28;20765;-87
2022/12/15 09:14:19;;;;;;;;;;;4.90;77.60;;;;;;5076061;28;20306;-87
2022/12/15 09:16:45;;;;;;;;;;;4.90;78.20;;;;;;5069882;28;20424;-88
2022/12/15 09:19:10;;;;;;;;;;;5.00;77.20;;;;;;5071270;28;19980;-87
2022/12/15 09:21:36;;;;;;;;;;;5.00;77.60;;;;;;5053907;28;20346;-88
2022/12/15 09:24:02;;;;;;;;;;;5.00;77.80;;;;;;5074635;28;20402;-88
2022/12/15 09:26:31;;;;;;;;;;;4.90;78.00;;;;;;5070514;28;19951;-88
2022/12/15 09:28:57;;;;;;;;;;;5.00;76.90;;;;;;5071434;28;19950;-87
2022/12/15 09:31:24;;;;;;;;;;;5.00;77.20;;;;;;5069684;28;19953;-88
2022/12/15 09:33:50;;;;;;;;;;;5.10;77.30;;;;;;5076684;28;20025;-88
2022/12/15 09:36:16;;;;;;;;;;;5.20;77.10;;;;;;5071250;28;19953;-88
2022/12/15 09:38:42;;;;;;;;;;;5.30;77.60;;;;;;5075807;28;19958;-88
2022/12/15 09:41:14;;;;;;;;;;;5.40;77.80;;;;;;5073356;28;19943;-88
2022/12/15 09:44:12;;;;;;;;;;;5.60;76.30;;;;;;5071140;28;19972;-87
2022/12/15 09:46:37;;;;;;;;;;;5.60;76.40;;;;;;5022262;28;20424;-87
2022/12/15 09:49:10;;;;;;;;;;;5.60;76.20;;;;;;5072781;28;19986;-87
2022/12/15 09:51:41;;;;;;;;;;;5.70;76.50;;;;;;5071924;28;19957;-88
2022/12/15 09:54:09;;;;;;;;;;;5.80;76.00;;;;;;5069728;28;19949;-88
2022/12/15 09:56:47;;;;;;;;;;;5.80;75.10;;;;;;5070094;28;19950;-88
2022/12/15 09:59:31;;;;;;;;;;;5.80;75.10;;;;;;5072835;28;19960;-88
2022/12/15 10:02:16;;;;;;;;;;;5.90;75.10;;;;;;5065808;28;19949;-88
2022/12/15 10:05:14;;;;;;;;;;;6.10;74.20;;;;;;5071302;28;19943;-88
2022/12/15 10:07:45;;;;;;;;;;;6.20;74.20;;;;;;5055475;28;19953;-88
2022/12/15 10:10:31;;;;;;;;;;;6.40;73.80;;;;;;5070628;28;19946;-88
2022/12/15 10:12:59;;;;;;;;;;;6.60;72.90;;;;;;5070373;28;19995;-88
2022/12/15 10:15:26;;;;;;;;;;;6.70;73.10;;;;;;5071561;28;19950;-88
2022/12/15 10:18:01;;;;;;;;;;;7.00;72.10;;;;;;5067380;28;19949;-87
2022/12/15 10:20:30;;;;;;;;;;;7.10;70.80;;;;;;5070071;28;20018;-88
2022/12/15 10:22:56;;;;;;;;;;;7.10;70.80;;;;;;5091623;22;20136;-88
2022/12/15 10:25:30;;;;;;;;;;;7.00;71.20;;;;;;5087466;28;19943;-87
2022/12/15 10:28:14;;;;;;;;;;;6.90;71.70;;;;;;5089387;28;20036;-87
2022/12/15 10:30:48;;;;;;;;;;;6.80;71.90;;;;;;5092546;28;20510;-88
2022/12/15 10:33:20;;;;;;;;;;;6.80;72.00;;;;;;5088125;28;20405;-88
2022/12/15 10:35:46;;;;;;;;;;;6.60;73.20;;;;;;5091301;28;20351;-88
2022/12/15 10:38:33;;;;;;;;;;;6.50;73.20;;;;;;5091592;28;20405;-88
2022/12/15 10:41:04;;;;;;;;;;;6.50;73.80;;;;;;5070099;28;19944;-88
2022/12/15 10:43:35;;;;;;;;;;;6.60;74.10;;;;;;5092360;28;20355;-88
2022/12/15 10:46:09;;;;;;;;;;;6.70;73.50;;;;;;5089272;28;20033;-88
2022/12/15 10:48:35;;;;;;;;;;;6.70;73.30;;;;;;5087094;28;19947;-88
2022/12/15 10:51:13;;;;;;;;;;;6.80;73.20;;;;;;5094085;28;20309;-88
2022/12/15 10:53:40;;;;;;;;;;;6.90;72.70;;;;;;5090553;28;20413;-88
2022/12/15 10:56:06;;;;;;;;;;;7.00;72.20;;;;;;5089296;28;19955;-87
2022/12/15 10:58:43;;;;;;;;;;;7.10;72.00;;;;;;5095571;28;19965;-88
2022/12/15 11:01:14;;;;;;;;;;;7.10;71.80;;;;;;5090313;28;20382;-87
2022/12/15 11:03:40;;;;;;;;;;;6.90;72.30;;;;;;5092662;28;20567;-87
2022/12/15 11:06:13;;;;;;;;;;;6.80;73.30;;;;;;5093995;28;19945;-88
2022/12/15 11:08:40;;;;;;;;;;;6.80;73.20;;;;;;5092434;28;19957;-88
2022/12/15 11:14:10;;;;;;;;;;;6.70;74.30;;;;;;5091685;28;20025;-88
2022/12/15 11:16:41;;;;;;;;;;;6.50;74.20;;;;;;5093505;28;19990;-88
2022/12/15 11:19:12;;;;;;;;;;;6.50;74.30;;;;;;5093391;28;20401;-87
2022/12/15 11:21:40;;;;;;;;;;;6.60;74.40;;;;;;5093008;28;19972;-88
2022/12/15 11:24:18;;;;;;;;;;;6.70;75.00;;;;;;5093298;28;20407;-88
2022/12/15 11:26:52;;;;;;;;;;;6.80;74.90;;;;;;5093389;28;19936;-88
2022/12/15 11:29:36;;;;;;;;;;;6.90;75.00;;;;;;5093384;28;20434;-88
2022/12/15 11:32:02;;;;;;;;;;;7.00;74.00;;;;;;5093110;28;20040;-87
2022/12/15 11:34:35;;;;;;;;;;;7.00;73.90;;;;;;5093224;28;20202;-87
2022/12/15 11:37:11;;;;;;;;;;;6.90;74.50;;;;;;5093274;28;19941;-87
2022/12/15 11:39:39;;;;;;;;;;;6.90;74.40;;;;;;5092905;28;19968;-88
2022/12/15 11:42:16;;;;;;;;;;;6.90;74.50;;;;;;5093151;28;19942;-88
2022/12/15 11:44:59;;;;;;;;;;;6.80;74.50;;;;;;5093156;28;19974;-88
2022/12/15 11:47:46;;;;;;;;;;;6.80;75.40;;;;;;5093151;28;19937;-88
2022/12/15 11:50:31;;;;;;;;;;;6.90;74.80;;;;;;5093080;28;19937;-88
2022/12/15 11:53:03;;;;;;;;;;;6.90;74.70;;;;;;5092277;28;19969;-88
2022/12/15 11:55:32;;;;;;;;;;;7.00;74.70;;;;;;5093012;28;20072;-88
2022/12/15 11:58:16;;;;;;;;;;;6.90;74.30;;;;;;5093048;28;20396;-88
2022/12/15 12:00:49;;;;;;;;;;;6.90;73.90;;;;;;5092670;28;19943;-88
2022/12/15 12:03:29;;;;;;;;;;;6.90;74.20;;;;;;5092930;28;20000;-88
2022/12/15 12:06:07;;;;;;;;;;;7.10;74.20;;;;;;5079133;28;19949;-88
2022/12/15 12:08:40;;;;;;;;;;;7.10;73.80;;;;;;5072714;28;19948;-88
2022/12/15 12:11:11;;;;;;;;;;;7.00;72.40;;;;;;5068502;28;19979;-87
2022/12/15 12:13:55;;;;;;;;;;;7.10;71.40;;;;;;5092605;28;19959;-87
2022/12/15 12:16:24;;;;;;;;;;;7.00;70.70;;;;;;5092755;28;19944;-88
2022/12/15 12:19:01;;;;;;;;;;;6.90;71.10;;;;;;5092786;28;19978;-88
2022/12/15 12:21:30;;;;;;;;;;;6.90;71.20;;;;;;5092188;28;20001;-88
2022/12/15 12:24:00;;;;;;;;;;;6.90;72.10;;;;;;5092760;28;20032;-88
2022/12/15 12:26:35;;;;;;;;;;;6.80;72.70;;;;;;5093032;28;19946;-88
2022/12/15 12:29:19;;;;;;;;;;;6.90;73.10;;;;;;5093069;28;19942;-88
2022/12/15 12:31:56;;;;;;;;;;;6.80;71.60;;;;;;5089815;28;20031;-88
2022/12/15 12:34:25;;;;;;;;;;;6.80;71.10;;;;;;5083725;28;19961;-88
2022/12/15 12:36:52;;;;;;;;;;;6.80;71.10;;;;;;5090228;28;19968;-88
2022/12/15 12:39:23;;;;;;;;;;;6.90;71.00;;;;;;5089510;28;19957;-88
2022/12/15 12:41:59;;;;;;;;;;;6.90;71.20;;;;;;5089257;28;19944;-88
2022/12/15 12:44:32;;;;;;;;;;;6.80;71.30;;;;;;5067766;28;19965;-88
2022/12/15 12:47:04;;;;;;;;;;;6.70;71.30;;;;;;5088647;28;19946;-88
2022/12/15 12:49:32;;;;;;;;;;;6.50;71.90;;;;;;5091985;28;19945;-88
2022/12/15 12:51:59;;;;;;;;;;;6.50;71.60;;;;;;5092827;28;19940;-88
2022/12/15 12:54:36;;;;;;;;;;;6.50;72.50;;;;;;5086396;28;19945;-88
2022/12/15 12:57:22;;;;;;;;;;;6.70;71.90;;;;;;5091109;28;20002;-88
2022/12/15 12:59:47;;;;;;;;;;;6.70;71.70;;;;;;5093647;28;19965;-88
2022/12/15 13:02:13;;;;;;;;;;;6.50;71.80;;;;;;5090352;28;19966;-88
2022/12/15 13:04:39;;;;;;;;;;;6.40;72.00;;;;;;5090153;28;20039;-87
2022/12/15 13:07:24;;;;;;;;;;;6.50;71.20;;;;;;5089306;28;20328;-88
2022/12/15 13:10:00;;;;;;;;;;;6.40;71.30;;;;;;5089077;28;19944;-87
2022/12/15 13:12:45;;;;;;;;;;;6.40;71.70;;;;;;5089082;28;19958;-87
2022/12/15 13:15:13;;;;;;;;;;;6.30;71.70;;;;;;5083800;28;19994;-88
2022/12/15 13:17:42;;;;;;;;;;;6.40;71.90;;;;;;5094642;28;19935;-87
2022/12/15 13:20:20;;;;;;;;;;;6.40;72.10;;;;;;5086720;28;20031;-88
2022/12/15 13:22:46;;;;;;;;;;;6.50;71.90;;;;;;5088916;28;19951;-88
2022/12/15 13:25:40;;;;;;;;;;;6.50;72.10;;;;;;5093021;28;19959;-88
2022/12/15 13:28:15;;;;;;;;;;;6.50;71.10;;;;;;5067754;28;20031;-88
2022/12/15 13:30:59;;;;;;;;;;;6.80;70.80;;;;;;5072670;28;19939;-88
2022/12/15 13:33:25;;;;;;;;;;;6.80;71.20;;;;;;5077595;28;19947;-88
2022/12/15 13:35:51;;;;;;;;;;;6.80;71.50;;;;;;5070887;28;19953;-88
2022/12/15 13:38:17;;;;;;;;;;;6.70;71.50;;;;;;5086717;28;20039;-88
2022/12/15 13:40:45;;;;;;;;;;;6.70;71.30;;;;;;5094384;28;20034;-88
2022/12/15 13:43:26;;;;;;;;;;;6.80;71.00;;;;;;5092747;28;20410;-88
2022/12/15 13:45:55;;;;;;;;;;;6.80;71.40;;;;;;5091071;28;20428;-88
2022/12/15 13:48:33;;;;;;;;;;;6.90;71.30;;;;;;5091000;28;19949;-88
2022/12/15 13:51:16;;;;;;;;;;;6.80;71.10;;;;;;5094183;28;19946;-88
2022/12/15 13:53:44;;;;;;;;;;;6.60;72.20;;;;;;5085165;28;19991;-88
2022/12/15 13:56:10;;;;;;;;;;;6.50;72.50;;;;;;5098262;28;19941;-88
2022/12/15 13:58:42;;;;;;;;;;;6.40;73.40;;;;;;5093089;28;20502;-88
2022/12/15 14:01:18;;;;;;;;;;;6.40;73.60;;;;;;5090887;28;20403;-88
2022/12/15 14:04:03;;;;;;;;;;;6.40;73.50;;;;;;5090153;28;19950;-88
2022/12/15 14:06:33;;;;;;;;;;;6.40;74.10;;;;;;5091561;28;19939;-88
2022/12/15 14:08:59;;;;;;;;;;;6.30;75.20;;;;;;5080840;28;20327;-88
2022/12/15 14:11:32;;;;;;;;;;;6.30;75.80;;;;;;5099684;28;19947;-88
2022/12/15 14:13:59;;;;;;;;;;;6.40;76.30;;;;;;5090956;28;19944;-87
2022/12/15 14:16:25;;;;;;;;;;;6.40;77.00;;;;;;5099497;28;20053;-88
2022/12/15 14:19:10;;;;;;;;;;;6.20;77.80;;;;;;5091634;28;20535;-88
2022/12/15 14:21:36;;;;;;;;;;;6.00;78.80;;;;;;5087296;28;19977;-88
2022/12/15 14:24:01;;;;;;;;;;;5.90;79.10;;;;;;5086796;28;19944;-88
2022/12/15 14:26:29;;;;;;;;;;;5.70;79.40;;;;;;5089229;28;19947;-88
2022/12/15 14:29:02;;;;;;;;;;;5.60;79.90;;;;;;5087893;28;19998;-88
2022/12/15 14:31:28;;;;;;;;;;;5.50;80.50;;;;;;5081965;28;19943;-88
2022/12/15 14:34:00;;;;;;;;;;;5.50;81.10;;;;;;5086483;28;19942;-88
2022/12/15 14:36:25;;;;;;;;;;;5.50;81.30;;;;;;5095060;28;20406;-88
2022/12/15 14:38:51;;;;;;;;;;;5.50;81.40;;;;;;5093221;28;19985;-88
2022/12/15 14:41:21;;;;;;;;;;;5.50;81.70;;;;;;5095198;28;20313;-88
2022/12/15 14:43:48;;;;;;;;;;;5.80;80.80;;;;;;5091716;28;19953;-88
2022/12/15 14:46:15;;;;;;;;;;;5.80;80.60;;;;;;5083628;28;20379;-88
2022/12/15 14:49:01;;;;;;;;;;;5.80;80.90;;;;;;5090708;28;19942;-88
2022/12/15 14:51:27;;;;;;;;;;;5.70;81.30;;;;;;5079332;28;20007;-88
2022/12/15 14:53:54;;;;;;;;;;;5.70;82.10;;;;;;5090479;28;20011;-88
2022/12/15 14:56:19;;;;;;;;;;;5.60;82.60;;;;;;5090219;28;20043;-88
2022/12/15 14:58:54;;;;;;;;;;;5.50;83.60;;;;;;5087228;28;20058;-88
2022/12/15 15:01:21;;;;;;;;;;;5.50;84.10;;;;;;5091817;28;19951;-88
2022/12/15 15:03:54;;;;;;;;;;;5.50;84.30;;;;;;5088035;28;20039;-88
2022/12/15 15:06:21;;;;;;;;;;;5.60;84.60;;;;;;5074389;28;19959;-88
2022/12/15 15:08:50;;;;;;;;;;;5.70;84.90;;;;;;5087102;28;19944;-88
2022/12/15 15:11:28;;;;;;;;;;;5.90;84.50;;;;;;5088216;28;19998;-88
2022/12/15 15:14:06;;;;;;;;;;;5.90;84.10;;;;;;5079159;28;19945;-88
2022/12/15 15:16:32;;;;;;;;;;;6.10;83.60;;;;;;5081830;28;20027;-88
2022/12/15 15:18:59;;;;;;;;;;;6.10;83.40;;;;;;5086925;28;20056;-88
2022/12/15 15:21:27;;;;;;;;;;;6.00;83.50;;;;;;5099533;28;20018;-88
2022/12/15 15:24:00;;;;;;;;;;;5.80;83.90;;;;;;5083961;28;19961;-88
2022/12/15 15:26:26;;;;;;;;;;;5.70;84.40;;;;;;5091884;28;19960;-88
2022/12/15 15:28:52;;;;;;;;;;;5.50;85.00;;;;;;5089305;28;20043;-88
2022/12/15 15:31:24;;;;;;;;;;;5.50;85.50;;;;;;5088610;28;19988;-87
2022/12/15 15:33:50;;;;;;;;;;;5.60;85.30;;;;;;5086400;28;20047;-88
2022/12/15 15:36:16;;;;;;;;;;;5.70;85.30;;;;;;5088718;28;19953;-88
2022/12/15 15:38:42;;;;;;;;;;;5.80;85.50;;;;;;5087894;28;19965;-88
2022/12/15 15:41:10;;;;;;;;;;;5.70;85.60;;;;;;5098518;28;19944;-88
2022/12/15 15:43:36;;;;;;;;;;;5.70;85.90;;;;;;5091385;28;19943;-88
2022/12/15 15:46:03;;;;;;;;;;;5.60;86.50;;;;;;5089800;28;19964;-87
2022/12/15 15:48:30;;;;;;;;;;;5.40;87.00;;;;;;5085307;28;19937;-88
2022/12/15 15:50:56;;;;;;;;;;;5.20;87.80;;;;;;5070932;28;20031;-88
2022/12/15 15:53:23;;;;;;;;;;;5.10;88.40;;;;;;5071405;28;20422;-88
2022/12/15 15:55:50;;;;;;;;;;;5.20;88.40;;;;;;5089774;28;19949;-87
2022/12/15 15:58:15;;;;;;;;;;;5.10;88.50;;;;;;5088468;28;19950;-88
2022/12/15 16:00:41;;;;;;;;;;;5.10;88.90;;;;;;5085063;28;19969;-88
2022/12/15 16:03:07;;;;;;;;;;;5.00;89.30;;;;;;5089909;28;19953;-88
2022/12/15 16:05:33;;;;;;;;;;;4.90;89.70;;;;;;5085986;28;19952;-88
2022/12/15 16:07:59;;;;;;;;;;;4.90;89.90;;;;;;5087010;28;19989;-88
2022/12/15 16:10:25;;;;;;;;;;;4.90;90.40;;;;;;5088584;28;20037;-88
2022/12/15 16:12:51;;;;;;;;;;;4.80;90.90;;;;;;5088230;28;20050;-88
2022/12/15 16:15:22;;;;;;;;;;;4.80;91.10;;;;;;5084545;28;20414;-88
2022/12/15 16:17:47;;;;;;;;;;;4.90;91.10;;;;;;5091495;28;19948;-88
2022/12/15 16:20:14;;;;;;;;;;;4.90;91.00;;;;;;5086002;28;19968;-88
2022/12/15 16:22:40;;;;;;;;;;;4.90;91.10;;;;;;5071990;28;20071;-88
2022/12/15 16:25:11;;;;;;;;;;;4.90;91.10;;;;;;5090174;28;19994;-88
2022/12/15 16:27:37;;;;;;;;;;;4.90;90.90;;;;;;5085023;28;19944;-88
2022/12/15 16:30:09;;;;;;;;;;;5.00;90.80;;;;;;5085184;28;20034;-88
2022/12/15 16:32:35;;;;;;;;;;;5.00;90.50;;;;;;5074239;28;19943;-87
2022/12/15 16:35:00;;;;;;;;;;;4.90;90.80;;;;;;5092148;28;20437;-87
2022/12/15 16:37:26;;;;;;;;;;;4.90;91.00;;;;;;5080025;28;20035;-88
2022/12/15 16:39:52;;;;;;;;;;;4.90;91.00;;;;;;5095023;28;19965;-88
2022/12/15 16:42:18;;;;;;;;;;;5.00;91.00;;;;;;5077805;28;20411;-88
2022/12/15 16:44:43;;;;;;;;;;;5.10;90.90;;;;;;5095150;28;19949;-88
2022/12/15 16:47:09;;;;;;;;;;;5.30;90.90;;;;;;5088479;28;20039;-88
2022/12/15 16:49:34;;;;;;;;;;;5.30;90.60;;;;;;5076506;28;20317;-88
2022/12/15 16:52:00;;;;;;;;;;;5.30;90.90;;;;;;5088610;28;19971;-88
2022/12/15 16:54:26;;;;;;;;;;;5.30;90.80;;;;;;5094724;28;20335;-89
2022/12/15 16:56:53;;;;;;;;;;;5.30;91.00;;;;;;5091187;28;20040;-88
2022/12/15 16:59:20;;;;;;;;;;;5.60;90.70;;;;;;5089352;28;20099;-88
2022/12/15 17:01:45;;;;;;;;;;;5.70;89.50;;;;;;5095382;28;19949;-88
2022/12/15 17:04:11;;;;;;;;;;;5.70;89.00;;;;;;5102407;28;20337;-88
2022/12/15 17:06:36;;;;;;;;;;;5.60;89.20;;;;;;5090823;28;19954;-88
2022/12/15 17:09:03;;;;;;;;;;;5.40;89.60;;;;;;5093567;28;20377;-88